sensor_id;sensor_type;location;lat;lon;timestamp;P1;durP1;ratioP1;P2;durP2;ratioP2
3663;SDS011;1848;51.042;7.066;2022-07-29T00:01:43;3.97;;;2.90;;
3663;SDS011;1848;51.042;7.066;2022-07-29T00:04:10;4.20;;;3.23;;
3663;SDS011;1848;51.042;7.066;2022-07-29T00:06:37;6.10;;;3.33;;
3663;SDS011;1848;51.042;7.066;2022-07-29T00:09:03;8.20;;;2.90;;
3663;SDS011;1848;51.042;7.066;2022-07-29T00:11:30;4.50;;;2.73;;
3663;SDS011;1848;51.042;7.066;2022-07-29T00:13:56;4.93;;;2.70;;
3663;SDS011;1848;51.042;7.066;2022-07-29T00:16:23;7.30;;;3.00;;
3663;SDS011;1848;51.042;7.066;2022-07-29T00:18:50;3.83;;;3.30;;
3663;SDS011;1848;51.042;7.066;2022-07-29T00:21:16;5.03;;;3.27;;
3663;SDS011;1848;51.042;7.066;2022-07-29T00:23:43;3.00;;;2.70;;
3663;SDS011;1848;51.042;7.066;2022-07-29T00:26:09;6.43;;;3.27;;
3663;SDS011;1848;51.042;7.066;2022-07-29T00:28:35;6.80;;;3.00;;
3663;SDS011;1848;51.042;7.066;2022-07-29T00:31:02;5.90;;;3.20;;
3663;SDS011;1848;51.042;7.066;2022-07-29T00:33:29;4.00;;;3.23;;
3663;SDS011;1848;51.042;7.066;2022-07-29T00:35:55;8.60;;;3.17;;
3663;SDS011;1848;51.042;7.066;2022-07-29T00:38:22;5.20;;;3.30;;
3663;SDS011;1848;51.042;7.066;2022-07-29T00:40:48;4.53;;;3.23;;
3663;SDS011;1848;51.042;7.066;2022-07-29T00:43:15;5.13;;;3.27;;
3663;SDS011;1848;51.042;7.066;2022-07-29T00:45:43;7.63;;;3.00;;
3663;SDS011;1848;51.042;7.066;2022-07-29T00:48:10;5.87;;;3.40;;
3663;SDS011;1848;51.042;7.066;2022-07-29T00:50:36;3.20;;;3.00;;
3663;SDS011;1848;51.042;7.066;2022-07-29T00:53:05;3.70;;;2.87;;
3663;SDS011;1848;51.042;7.066;2022-07-29T00:55:32;7.63;;;3.43;;
3663;SDS011;1848;51.042;7.066;2022-07-29T00:57:58;4.57;;;3.60;;
3663;SDS011;1848;51.042;7.066;2022-07-29T01:00:26;3.80;;;2.70;;
3663;SDS011;1848;51.042;7.066;2022-07-29T01:02:54;6.80;;;3.30;;
3663;SDS011;1848;51.042;7.066;2022-07-29T01:05:21;6.03;;;3.03;;
3663;SDS011;1848;51.042;7.066;2022-07-29T01:07:51;8.30;;;3.73;;
3663;SDS011;1848;51.042;7.066;2022-07-29T01:10:19;5.40;;;3.20;;
3663;SDS011;1848;51.042;7.066;2022-07-29T01:12:47;5.60;;;3.77;;
3663;SDS011;1848;51.042;7.066;2022-07-29T01:15:16;5.57;;;3.20;;
3663;SDS011;1848;51.042;7.066;2022-07-29T01:17:44;6.23;;;3.07;;
3663;SDS011;1848;51.042;7.066;2022-07-29T01:34:27;9.30;;;3.67;;
3663;SDS011;1848;51.042;7.066;2022-07-29T01:37:03;9.90;;;3.47;;
3663;SDS011;1848;51.042;7.066;2022-07-29T01:39:35;4.00;;;3.30;;
3663;SDS011;1848;51.042;7.066;2022-07-29T01:42:14;5.13;;;3.13;;
3663;SDS011;1848;51.042;7.066;2022-07-29T01:44:53;7.90;;;3.20;;
3663;SDS011;1848;51.042;7.066;2022-07-29T01:47:25;5.17;;;3.00;;
3663;SDS011;1848;51.042;7.066;2022-07-29T01:50:00;3.70;;;3.40;;
3663;SDS011;1848;51.042;7.066;2022-07-29T01:52:39;4.57;;;3.17;;
3663;SDS011;1848;51.042;7.066;2022-07-29T01:55:14;3.33;;;3.00;;
3663;SDS011;1848;51.042;7.066;2022-07-29T01:57:43;3.80;;;3.07;;
3663;SDS011;1848;51.042;7.066;2022-07-29T02:00:12;5.10;;;3.20;;
3663;SDS011;1848;51.042;7.066;2022-07-29T02:02:40;6.37;;;3.40;;
3663;SDS011;1848;51.042;7.066;2022-07-29T02:05:10;6.07;;;3.27;;
3663;SDS011;1848;51.042;7.066;2022-07-29T02:07:40;5.43;;;3.40;;
3663;SDS011;1848;51.042;7.066;2022-07-29T02:10:09;6.17;;;3.40;;
3663;SDS011;1848;51.042;7.066;2022-07-29T02:12:38;8.90;;;3.30;;
3663;SDS011;1848;51.042;7.066;2022-07-29T02:15:13;4.80;;;2.93;;
3663;SDS011;1848;51.042;7.066;2022-07-29T02:17:49;3.93;;;3.60;;
3663;SDS011;1848;51.042;7.066;2022-07-29T02:20:19;3.63;;;3.17;;
3663;SDS011;1848;51.042;7.066;2022-07-29T02:22:45;4.00;;;3.23;;
3663;SDS011;1848;51.042;7.066;2022-07-29T02:25:14;5.77;;;3.43;;
3663;SDS011;1848;51.042;7.066;2022-07-29T02:27:42;4.43;;;3.37;;
3663;SDS011;1848;51.042;7.066;2022-07-29T02:30:10;6.00;;;3.50;;
3663;SDS011;1848;51.042;7.066;2022-07-29T02:32:39;5.03;;;3.10;;
3663;SDS011;1848;51.042;7.066;2022-07-29T02:35:07;3.77;;;3.00;;
3663;SDS011;1848;51.042;7.066;2022-07-29T02:37:35;5.53;;;3.40;;
3663;SDS011;1848;51.042;7.066;2022-07-29T02:40:03;5.00;;;2.70;;
3663;SDS011;1848;51.042;7.066;2022-07-29T02:42:30;4.17;;;3.40;;
3663;SDS011;1848;51.042;7.066;2022-07-29T02:45:02;3.73;;;2.93;;
3663;SDS011;1848;51.042;7.066;2022-07-29T02:47:31;5.83;;;2.70;;
3663;SDS011;1848;51.042;7.066;2022-07-29T02:50:26;5.93;;;3.40;;
3663;SDS011;1848;51.042;7.066;2022-07-29T02:53:00;9.07;;;3.83;;
3663;SDS011;1848;51.042;7.066;2022-07-29T02:55:32;3.00;;;2.70;;
3663;SDS011;1848;51.042;7.066;2022-07-29T03:00:41;5.73;;;3.03;;
3663;SDS011;1848;51.042;7.066;2022-07-29T03:03:15;3.40;;;3.10;;
3663;SDS011;1848;51.042;7.066;2022-07-29T03:05:43;7.83;;;3.40;;
3663;SDS011;1848;51.042;7.066;2022-07-29T03:08:10;6.23;;;3.43;;
3663;SDS011;1848;51.042;7.066;2022-07-29T03:10:39;6.90;;;3.80;;
3663;SDS011;1848;51.042;7.066;2022-07-29T03:13:09;3.70;;;3.10;;
3663;SDS011;1848;51.042;7.066;2022-07-29T03:15:36;4.30;;;3.83;;
3663;SDS011;1848;51.042;7.066;2022-07-29T03:18:03;4.00;;;3.07;;
3663;SDS011;1848;51.042;7.066;2022-07-29T03:20:31;5.30;;;3.80;;
3663;SDS011;1848;51.042;7.066;2022-07-29T03:22:57;8.13;;;4.20;;
3663;SDS011;1848;51.042;7.066;2022-07-29T03:25:24;5.63;;;3.53;;
3663;SDS011;1848;51.042;7.066;2022-07-29T03:27:51;7.57;;;3.87;;
3663;SDS011;1848;51.042;7.066;2022-07-29T03:30:17;5.63;;;4.00;;
3663;SDS011;1848;51.042;7.066;2022-07-29T03:32:47;5.73;;;3.40;;
3663;SDS011;1848;51.042;7.066;2022-07-29T03:35:17;4.27;;;3.30;;
3663;SDS011;1848;51.042;7.066;2022-07-29T03:37:45;4.20;;;3.10;;
3663;SDS011;1848;51.042;7.066;2022-07-29T03:40:14;6.70;;;3.00;;
3663;SDS011;1848;51.042;7.066;2022-07-29T03:42:45;6.07;;;3.57;;
3663;SDS011;1848;51.042;7.066;2022-07-29T03:45:15;6.50;;;3.57;;
3663;SDS011;1848;51.042;7.066;2022-07-29T03:47:45;5.87;;;3.47;;
3663;SDS011;1848;51.042;7.066;2022-07-29T03:50:20;5.73;;;3.83;;
3663;SDS011;1848;51.042;7.066;2022-07-29T03:52:47;5.73;;;3.07;;
3663;SDS011;1848;51.042;7.066;2022-07-29T03:55:15;7.70;;;3.40;;
3663;SDS011;1848;51.042;7.066;2022-07-29T03:57:42;5.30;;;3.10;;
3663;SDS011;1848;51.042;7.066;2022-07-29T04:00:09;5.20;;;3.47;;
3663;SDS011;1848;51.042;7.066;2022-07-29T04:02:37;3.73;;;3.07;;
3663;SDS011;1848;51.042;7.066;2022-07-29T04:05:04;9.80;;;4.00;;
3663;SDS011;1848;51.042;7.066;2022-07-29T04:07:31;8.17;;;3.83;;
3663;SDS011;1848;51.042;7.066;2022-07-29T04:09:57;8.23;;;3.70;;
3663;SDS011;1848;51.042;7.066;2022-07-29T04:12:24;8.13;;;3.23;;
3663;SDS011;1848;51.042;7.066;2022-07-29T04:14:50;6.00;;;3.37;;
3663;SDS011;1848;51.042;7.066;2022-07-29T04:17:17;8.80;;;3.40;;
3663;SDS011;1848;51.042;7.066;2022-07-29T04:19:43;6.23;;;3.63;;
3663;SDS011;1848;51.042;7.066;2022-07-29T04:22:10;6.23;;;3.27;;
3663;SDS011;1848;51.042;7.066;2022-07-29T04:24:36;6.73;;;3.73;;
3663;SDS011;1848;51.042;7.066;2022-07-29T04:27:02;3.60;;;3.20;;
3663;SDS011;1848;51.042;7.066;2022-07-29T04:29:29;7.57;;;3.53;;
3663;SDS011;1848;51.042;7.066;2022-07-29T04:31:55;9.93;;;3.60;;
3663;SDS011;1848;51.042;7.066;2022-07-29T04:34:22;6.57;;;3.57;;
3663;SDS011;1848;51.042;7.066;2022-07-29T04:36:53;12.20;;;3.10;;
3663;SDS011;1848;51.042;7.066;2022-07-29T04:39:19;4.03;;;3.23;;
3663;SDS011;1848;51.042;7.066;2022-07-29T04:41:48;5.40;;;3.73;;
3663;SDS011;1848;51.042;7.066;2022-07-29T04:44:17;7.20;;;4.20;;
3663;SDS011;1848;51.042;7.066;2022-07-29T04:46:44;14.13;;;4.10;;
3663;SDS011;1848;51.042;7.066;2022-07-29T04:49:11;5.83;;;3.97;;
3663;SDS011;1848;51.042;7.066;2022-07-29T04:51:38;6.67;;;3.13;;
3663;SDS011;1848;51.042;7.066;2022-07-29T04:54:04;7.10;;;4.40;;
3663;SDS011;1848;51.042;7.066;2022-07-29T04:56:31;6.70;;;3.87;;
3663;SDS011;1848;51.042;7.066;2022-07-29T04:58:57;7.50;;;3.30;;
3663;SDS011;1848;51.042;7.066;2022-07-29T05:01:24;4.50;;;3.30;;
3663;SDS011;1848;51.042;7.066;2022-07-29T05:03:50;7.83;;;4.20;;
3663;SDS011;1848;51.042;7.066;2022-07-29T05:06:22;8.90;;;3.60;;
3663;SDS011;1848;51.042;7.066;2022-07-29T05:08:48;7.10;;;4.40;;
3663;SDS011;1848;51.042;7.066;2022-07-29T05:11:14;6.40;;;3.43;;
3663;SDS011;1848;51.042;7.066;2022-07-29T05:13:47;7.90;;;2.97;;
3663;SDS011;1848;51.042;7.066;2022-07-29T05:16:14;7.10;;;3.30;;
3663;SDS011;1848;51.042;7.066;2022-07-29T05:18:40;8.37;;;3.73;;
3663;SDS011;1848;51.042;7.066;2022-07-29T05:21:08;9.90;;;4.50;;
3663;SDS011;1848;51.042;7.066;2022-07-29T05:23:34;5.53;;;3.87;;
3663;SDS011;1848;51.042;7.066;2022-07-29T05:26:00;6.30;;;4.03;;
3663;SDS011;1848;51.042;7.066;2022-07-29T05:28:27;9.00;;;3.77;;
3663;SDS011;1848;51.042;7.066;2022-07-29T05:30:54;4.60;;;3.20;;
3663;SDS011;1848;51.042;7.066;2022-07-29T05:33:20;11.20;;;3.87;;
3663;SDS011;1848;51.042;7.066;2022-07-29T05:36:01;7.70;;;3.40;;
3663;SDS011;1848;51.042;7.066;2022-07-29T05:38:31;7.43;;;3.33;;
3663;SDS011;1848;51.042;7.066;2022-07-29T05:40:58;11.03;;;3.30;;
3663;SDS011;1848;51.042;7.066;2022-07-29T05:43:28;4.07;;;3.37;;
3663;SDS011;1848;51.042;7.066;2022-07-29T05:45:55;8.20;;;3.30;;
3663;SDS011;1848;51.042;7.066;2022-07-29T05:48:22;6.13;;;2.80;;
3663;SDS011;1848;51.042;7.066;2022-07-29T05:50:49;7.10;;;3.33;;
3663;SDS011;1848;51.042;7.066;2022-07-29T05:53:15;7.20;;;3.83;;
3663;SDS011;1848;51.042;7.066;2022-07-29T05:55:45;7.27;;;3.60;;
3663;SDS011;1848;51.042;7.066;2022-07-29T05:58:12;6.37;;;3.23;;
3663;SDS011;1848;51.042;7.066;2022-07-29T06:00:39;4.70;;;3.20;;
3663;SDS011;1848;51.042;7.066;2022-07-29T06:03:06;6.80;;;3.20;;
3663;SDS011;1848;51.042;7.066;2022-07-29T06:05:32;8.13;;;3.17;;
3663;SDS011;1848;51.042;7.066;2022-07-29T06:07:59;9.83;;;3.00;;
3663;SDS011;1848;51.042;7.066;2022-07-29T06:10:25;6.03;;;3.27;;
3663;SDS011;1848;51.042;7.066;2022-07-29T06:12:52;8.37;;;3.53;;
3663;SDS011;1848;51.042;7.066;2022-07-29T06:15:19;5.63;;;2.60;;
3663;SDS011;1848;51.042;7.066;2022-07-29T06:17:45;5.30;;;3.07;;
3663;SDS011;1848;51.042;7.066;2022-07-29T06:20:26;7.13;;;3.30;;
3663;SDS011;1848;51.042;7.066;2022-07-29T06:22:56;8.97;;;3.30;;
3663;SDS011;1848;51.042;7.066;2022-07-29T06:25:22;6.30;;;3.03;;
3663;SDS011;1848;51.042;7.066;2022-07-29T06:27:49;8.17;;;3.60;;
3663;SDS011;1848;51.042;7.066;2022-07-29T06:30:15;8.33;;;3.17;;
3663;SDS011;1848;51.042;7.066;2022-07-29T06:32:42;4.00;;;3.13;;
3663;SDS011;1848;51.042;7.066;2022-07-29T06:35:08;8.87;;;3.73;;
3663;SDS011;1848;51.042;7.066;2022-07-29T06:37:55;6.13;;;3.00;;
3663;SDS011;1848;51.042;7.066;2022-07-29T06:40:24;4.07;;;2.87;;
3663;SDS011;1848;51.042;7.066;2022-07-29T06:43:09;8.53;;;3.17;;
3663;SDS011;1848;51.042;7.066;2022-07-29T06:45:36;5.90;;;2.80;;
3663;SDS011;1848;51.042;7.066;2022-07-29T06:48:04;6.10;;;2.80;;
3663;SDS011;1848;51.042;7.066;2022-07-29T06:50:31;8.33;;;3.07;;
3663;SDS011;1848;51.042;7.066;2022-07-29T06:52:57;6.37;;;3.40;;
3663;SDS011;1848;51.042;7.066;2022-07-29T06:55:24;6.47;;;2.90;;
3663;SDS011;1848;51.042;7.066;2022-07-29T06:57:50;5.60;;;3.33;;
3663;SDS011;1848;51.042;7.066;2022-07-29T07:00:17;7.00;;;3.00;;
3663;SDS011;1848;51.042;7.066;2022-07-29T07:02:43;6.40;;;2.67;;
3663;SDS011;1848;51.042;7.066;2022-07-29T07:05:12;6.53;;;3.00;;
3663;SDS011;1848;51.042;7.066;2022-07-29T07:07:39;6.03;;;3.10;;
3663;SDS011;1848;51.042;7.066;2022-07-29T07:10:05;15.80;;;3.67;;
3663;SDS011;1848;51.042;7.066;2022-07-29T07:12:32;7.37;;;3.40;;
3663;SDS011;1848;51.042;7.066;2022-07-29T07:14:58;7.30;;;3.13;;
3663;SDS011;1848;51.042;7.066;2022-07-29T07:17:25;5.13;;;3.20;;
3663;SDS011;1848;51.042;7.066;2022-07-29T07:19:51;8.33;;;3.23;;
3663;SDS011;1848;51.042;7.066;2022-07-29T07:22:17;6.83;;;3.27;;
3663;SDS011;1848;51.042;7.066;2022-07-29T07:24:44;7.23;;;3.30;;
3663;SDS011;1848;51.042;7.066;2022-07-29T07:27:10;5.13;;;3.13;;
3663;SDS011;1848;51.042;7.066;2022-07-29T07:29:37;6.90;;;3.20;;
3663;SDS011;1848;51.042;7.066;2022-07-29T07:32:09;9.10;;;3.23;;
3663;SDS011;1848;51.042;7.066;2022-07-29T07:34:36;7.27;;;4.97;;
3663;SDS011;1848;51.042;7.066;2022-07-29T07:37:03;4.90;;;3.20;;
3663;SDS011;1848;51.042;7.066;2022-07-29T07:39:31;9.33;;;3.67;;
3663;SDS011;1848;51.042;7.066;2022-07-29T07:41:57;8.60;;;3.70;;
3663;SDS011;1848;51.042;7.066;2022-07-29T07:44:23;9.40;;;3.73;;
3663;SDS011;1848;51.042;7.066;2022-07-29T07:46:50;7.10;;;3.17;;
3663;SDS011;1848;51.042;7.066;2022-07-29T07:49:17;6.97;;;2.90;;
3663;SDS011;1848;51.042;7.066;2022-07-29T07:51:43;4.50;;;2.83;;
3663;SDS011;1848;51.042;7.066;2022-07-29T07:54:16;6.93;;;3.20;;
3663;SDS011;1848;51.042;7.066;2022-07-29T07:56:46;10.40;;;3.50;;
3663;SDS011;1848;51.042;7.066;2022-07-29T07:59:18;6.00;;;3.10;;
3663;SDS011;1848;51.042;7.066;2022-07-29T08:01:44;6.00;;;2.90;;
3663;SDS011;1848;51.042;7.066;2022-07-29T08:04:21;6.00;;;2.80;;
3663;SDS011;1848;51.042;7.066;2022-07-29T08:06:53;5.60;;;3.10;;
3663;SDS011;1848;51.042;7.066;2022-07-29T08:09:20;6.27;;;3.40;;
3663;SDS011;1848;51.042;7.066;2022-07-29T08:11:55;6.50;;;3.57;;
3663;SDS011;1848;51.042;7.066;2022-07-29T08:14:22;6.80;;;3.83;;
3663;SDS011;1848;51.042;7.066;2022-07-29T08:16:48;6.00;;;3.20;;
3663;SDS011;1848;51.042;7.066;2022-07-29T08:19:15;6.40;;;3.37;;
3663;SDS011;1848;51.042;7.066;2022-07-29T08:21:41;3.70;;;3.30;;
3663;SDS011;1848;51.042;7.066;2022-07-29T08:24:08;5.60;;;3.23;;
3663;SDS011;1848;51.042;7.066;2022-07-29T08:26:53;9.03;;;3.30;;
3663;SDS011;1848;51.042;7.066;2022-07-29T08:29:20;4.37;;;3.03;;
3663;SDS011;1848;51.042;7.066;2022-07-29T08:31:46;6.43;;;3.63;;
3663;SDS011;1848;51.042;7.066;2022-07-29T08:34:13;8.63;;;3.63;;
3663;SDS011;1848;51.042;7.066;2022-07-29T08:36:39;4.83;;;3.80;;
3663;SDS011;1848;51.042;7.066;2022-07-29T08:39:06;8.97;;;3.77;;
3663;SDS011;1848;51.042;7.066;2022-07-29T08:41:32;6.57;;;3.13;;
3663;SDS011;1848;51.042;7.066;2022-07-29T08:43:59;7.70;;;3.87;;
3663;SDS011;1848;51.042;7.066;2022-07-29T08:46:25;8.30;;;3.70;;
3663;SDS011;1848;51.042;7.066;2022-07-29T08:48:52;6.37;;;3.47;;
3663;SDS011;1848;51.042;7.066;2022-07-29T08:51:19;7.73;;;3.33;;
3663;SDS011;1848;51.042;7.066;2022-07-29T08:53:47;5.80;;;3.57;;
3663;SDS011;1848;51.042;7.066;2022-07-29T08:56:15;8.00;;;3.50;;
3663;SDS011;1848;51.042;7.066;2022-07-29T08:58:45;6.37;;;3.80;;
3663;SDS011;1848;51.042;7.066;2022-07-29T09:01:21;4.77;;;4.00;;
3663;SDS011;1848;51.042;7.066;2022-07-29T09:04:02;10.23;;;3.93;;
3663;SDS011;1848;51.042;7.066;2022-07-29T09:06:31;8.10;;;3.60;;
3663;SDS011;1848;51.042;7.066;2022-07-29T09:09:00;6.83;;;3.63;;
3663;SDS011;1848;51.042;7.066;2022-07-29T09:11:27;6.47;;;4.10;;
3663;SDS011;1848;51.042;7.066;2022-07-29T09:13:54;6.23;;;3.87;;
3663;SDS011;1848;51.042;7.066;2022-07-29T09:16:20;7.70;;;3.63;;
3663;SDS011;1848;51.042;7.066;2022-07-29T09:19:19;4.70;;;3.30;;
3663;SDS011;1848;51.042;7.066;2022-07-29T09:21:47;13.97;;;4.17;;
3663;SDS011;1848;51.042;7.066;2022-07-29T09:24:27;9.83;;;4.17;;
3663;SDS011;1848;51.042;7.066;2022-07-29T09:27:01;7.93;;;3.90;;
3663;SDS011;1848;51.042;7.066;2022-07-29T09:29:27;6.33;;;3.30;;
3663;SDS011;1848;51.042;7.066;2022-07-29T09:32:00;8.77;;;3.80;;
3663;SDS011;1848;51.042;7.066;2022-07-29T09:34:32;7.53;;;4.10;;
3663;SDS011;1848;51.042;7.066;2022-07-29T09:36:58;6.87;;;3.80;;
3663;SDS011;1848;51.042;7.066;2022-07-29T09:39:29;5.50;;;3.73;;
3663;SDS011;1848;51.042;7.066;2022-07-29T09:42:04;6.40;;;3.80;;
3663;SDS011;1848;51.042;7.066;2022-07-29T09:44:42;12.60;;;4.57;;
3663;SDS011;1848;51.042;7.066;2022-07-29T09:47:16;6.10;;;3.90;;
3663;SDS011;1848;51.042;7.066;2022-07-29T09:52:25;9.57;;;4.20;;
3663;SDS011;1848;51.042;7.066;2022-07-29T09:54:52;6.63;;;4.27;;
3663;SDS011;1848;51.042;7.066;2022-07-29T09:57:28;13.47;;;5.17;;
3663;SDS011;1848;51.042;7.066;2022-07-29T10:00:00;7.63;;;5.13;;
3663;SDS011;1848;51.042;7.066;2022-07-29T10:02:33;9.60;;;4.80;;
3663;SDS011;1848;51.042;7.066;2022-07-29T10:05:02;9.37;;;4.87;;
3663;SDS011;1848;51.042;7.066;2022-07-29T10:07:43;8.80;;;4.87;;
3663;SDS011;1848;51.042;7.066;2022-07-29T10:10:10;8.97;;;4.70;;
3663;SDS011;1848;51.042;7.066;2022-07-29T10:13:12;10.33;;;5.43;;
3663;SDS011;1848;51.042;7.066;2022-07-29T10:15:36;8.60;;;4.73;;
3663;SDS011;1848;51.042;7.066;2022-07-29T10:18:07;23.67;;;5.30;;
3663;SDS011;1848;51.042;7.066;2022-07-29T10:20:34;4.77;;;4.33;;
3663;SDS011;1848;51.042;7.066;2022-07-29T10:23:01;11.40;;;5.13;;
3663;SDS011;1848;51.042;7.066;2022-07-29T10:25:28;9.87;;;5.60;;
3663;SDS011;1848;51.042;7.066;2022-07-29T10:27:55;9.10;;;4.70;;
3663;SDS011;1848;51.042;7.066;2022-07-29T10:30:22;11.33;;;5.63;;
3663;SDS011;1848;51.042;7.066;2022-07-29T10:44:18;8.13;;;5.90;;
3663;SDS011;1848;51.042;7.066;2022-07-29T10:47:07;10.40;;;4.50;;
3663;SDS011;1848;51.042;7.066;2022-07-29T10:49:35;9.80;;;5.17;;
3663;SDS011;1848;51.042;7.066;2022-07-29T10:52:07;8.37;;;6.00;;
3663;SDS011;1848;51.042;7.066;2022-07-29T10:57:14;8.93;;;5.77;;
3663;SDS011;1848;51.042;7.066;2022-07-29T10:59:43;9.20;;;6.07;;
3663;SDS011;1848;51.042;7.066;2022-07-29T11:05:14;9.97;;;6.10;;
3663;SDS011;1848;51.042;7.066;2022-07-29T11:10:46;10.93;;;5.60;;
3663;SDS011;1848;51.042;7.066;2022-07-29T11:13:44;13.47;;;5.53;;
3663;SDS011;1848;51.042;7.066;2022-07-29T11:16:11;10.60;;;6.07;;
3663;SDS011;1848;51.042;7.066;2022-07-29T11:21:40;7.60;;;5.37;;
3663;SDS011;1848;51.042;7.066;2022-07-29T11:24:29;6.97;;;4.90;;
3663;SDS011;1848;51.042;7.066;2022-07-29T11:27:08;8.00;;;5.20;;
3663;SDS011;1848;51.042;7.066;2022-07-29T11:29:38;7.83;;;5.40;;
3663;SDS011;1848;51.042;7.066;2022-07-29T11:32:09;12.10;;;5.40;;
3663;SDS011;1848;51.042;7.066;2022-07-29T11:34:41;12.33;;;5.97;;
3663;SDS011;1848;51.042;7.066;2022-07-29T11:45:01;6.80;;;4.87;;
3663;SDS011;1848;51.042;7.066;2022-07-29T11:48:14;8.80;;;5.17;;
3663;SDS011;1848;51.042;7.066;2022-07-29T11:50:57;11.13;;;5.43;;
3663;SDS011;1848;51.042;7.066;2022-07-29T11:53:24;6.70;;;5.07;;
3663;SDS011;1848;51.042;7.066;2022-07-29T11:55:54;8.03;;;4.93;;
3663;SDS011;1848;51.042;7.066;2022-07-29T11:58:23;6.57;;;5.20;;
3663;SDS011;1848;51.042;7.066;2022-07-29T12:00:51;8.33;;;5.13;;
3663;SDS011;1848;51.042;7.066;2022-07-29T12:03:27;7.70;;;4.97;;
3663;SDS011;1848;51.042;7.066;2022-07-29T12:05:58;8.53;;;5.27;;
3663;SDS011;1848;51.042;7.066;2022-07-29T12:08:25;12.30;;;4.77;;
3663;SDS011;1848;51.042;7.066;2022-07-29T12:10:53;11.47;;;4.50;;
3663;SDS011;1848;51.042;7.066;2022-07-29T12:13:20;8.43;;;5.10;;
3663;SDS011;1848;51.042;7.066;2022-07-29T12:15:56;6.13;;;4.67;;
3663;SDS011;1848;51.042;7.066;2022-07-29T12:18:25;11.23;;;5.47;;
3663;SDS011;1848;51.042;7.066;2022-07-29T12:20:59;5.57;;;4.90;;
3663;SDS011;1848;51.042;7.066;2022-07-29T12:23:33;8.97;;;4.67;;
3663;SDS011;1848;51.042;7.066;2022-07-29T12:26:03;6.80;;;4.20;;
3663;SDS011;1848;51.042;7.066;2022-07-29T12:28:38;6.03;;;4.50;;
3663;SDS011;1848;51.042;7.066;2022-07-29T12:31:06;5.73;;;4.30;;
3663;SDS011;1848;51.042;7.066;2022-07-29T12:33:39;7.13;;;4.77;;
3663;SDS011;1848;51.042;7.066;2022-07-29T12:36:06;11.43;;;4.80;;
3663;SDS011;1848;51.042;7.066;2022-07-29T12:38:42;6.77;;;4.00;;
3663;SDS011;1848;51.042;7.066;2022-07-29T12:41:09;7.33;;;4.57;;
3663;SDS011;1848;51.042;7.066;2022-07-29T12:43:36;8.00;;;4.50;;
3663;SDS011;1848;51.042;7.066;2022-07-29T12:46:13;7.10;;;4.53;;
3663;SDS011;1848;51.042;7.066;2022-07-29T12:48:41;6.33;;;4.47;;
3663;SDS011;1848;51.042;7.066;2022-07-29T12:51:09;5.53;;;4.20;;
3663;SDS011;1848;51.042;7.066;2022-07-29T12:53:37;5.50;;;4.40;;
3663;SDS011;1848;51.042;7.066;2022-07-29T12:56:05;7.10;;;4.10;;
3663;SDS011;1848;51.042;7.066;2022-07-29T12:58:52;8.77;;;4.80;;
3663;SDS011;1848;51.042;7.066;2022-07-29T13:01:19;9.33;;;4.17;;
3663;SDS011;1848;51.042;7.066;2022-07-29T13:06:42;6.10;;;4.40;;
3663;SDS011;1848;51.042;7.066;2022-07-29T13:09:12;6.53;;;4.10;;
3663;SDS011;1848;51.042;7.066;2022-07-29T13:11:42;11.33;;;4.90;;
3663;SDS011;1848;51.042;7.066;2022-07-29T13:14:30;8.23;;;4.53;;
3663;SDS011;1848;51.042;7.066;2022-07-29T13:17:07;7.13;;;4.50;;
3663;SDS011;1848;51.042;7.066;2022-07-29T13:22:24;5.47;;;3.97;;
3663;SDS011;1848;51.042;7.066;2022-07-29T13:24:55;9.37;;;4.57;;
3663;SDS011;1848;51.042;7.066;2022-07-29T13:27:24;9.33;;;5.10;;
3663;SDS011;1848;51.042;7.066;2022-07-29T13:29:52;7.47;;;4.00;;
3663;SDS011;1848;51.042;7.066;2022-07-29T13:32:22;6.87;;;4.40;;
3663;SDS011;1848;51.042;7.066;2022-07-29T13:34:54;7.30;;;4.27;;
3663;SDS011;1848;51.042;7.066;2022-07-29T13:37:21;7.63;;;4.17;;
3663;SDS011;1848;51.042;7.066;2022-07-29T13:39:48;8.20;;;4.43;;
3663;SDS011;1848;51.042;7.066;2022-07-29T13:42:18;7.00;;;4.17;;
3663;SDS011;1848;51.042;7.066;2022-07-29T13:44:45;7.17;;;4.90;;
3663;SDS011;1848;51.042;7.066;2022-07-29T13:47:11;5.50;;;4.50;;
3663;SDS011;1848;51.042;7.066;2022-07-29T13:49:37;6.33;;;4.70;;
3663;SDS011;1848;51.042;7.066;2022-07-29T13:52:04;8.10;;;4.53;;
3663;SDS011;1848;51.042;7.066;2022-07-29T13:54:33;7.77;;;4.50;;
3663;SDS011;1848;51.042;7.066;2022-07-29T13:57:07;5.20;;;4.57;;
3663;SDS011;1848;51.042;7.066;2022-07-29T13:59:34;8.73;;;4.57;;
3663;SDS011;1848;51.042;7.066;2022-07-29T14:02:00;5.07;;;4.53;;
3663;SDS011;1848;51.042;7.066;2022-07-29T14:04:27;7.90;;;3.80;;
3663;SDS011;1848;51.042;7.066;2022-07-29T14:06:54;6.17;;;4.17;;
3663;SDS011;1848;51.042;7.066;2022-07-29T14:09:21;4.90;;;4.40;;
3663;SDS011;1848;51.042;7.066;2022-07-29T14:11:47;8.80;;;4.80;;
3663;SDS011;1848;51.042;7.066;2022-07-29T14:14:15;8.20;;;4.13;;
3663;SDS011;1848;51.042;7.066;2022-07-29T14:16:42;5.47;;;4.03;;
3663;SDS011;1848;51.042;7.066;2022-07-29T14:19:17;10.07;;;4.90;;
3663;SDS011;1848;51.042;7.066;2022-07-29T14:21:43;7.97;;;5.10;;
3663;SDS011;1848;51.042;7.066;2022-07-29T14:24:10;11.33;;;4.50;;
3663;SDS011;1848;51.042;7.066;2022-07-29T14:26:46;5.63;;;4.30;;
3663;SDS011;1848;51.042;7.066;2022-07-29T14:29:13;11.33;;;5.10;;
3663;SDS011;1848;51.042;7.066;2022-07-29T14:31:39;9.00;;;4.97;;
3663;SDS011;1848;51.042;7.066;2022-07-29T14:34:06;8.93;;;5.30;;
3663;SDS011;1848;51.042;7.066;2022-07-29T14:36:32;8.07;;;5.37;;
3663;SDS011;1848;51.042;7.066;2022-07-29T14:38:58;5.67;;;4.93;;
3663;SDS011;1848;51.042;7.066;2022-07-29T14:41:25;6.43;;;4.80;;
3663;SDS011;1848;51.042;7.066;2022-07-29T14:43:54;5.80;;;4.03;;
3663;SDS011;1848;51.042;7.066;2022-07-29T14:46:20;8.93;;;4.60;;
3663;SDS011;1848;51.042;7.066;2022-07-29T14:48:47;7.70;;;5.53;;
3663;SDS011;1848;51.042;7.066;2022-07-29T14:51:13;6.30;;;5.00;;
3663;SDS011;1848;51.042;7.066;2022-07-29T14:53:40;4.50;;;3.90;;
3663;SDS011;1848;51.042;7.066;2022-07-29T14:56:06;7.90;;;4.57;;
3663;SDS011;1848;51.042;7.066;2022-07-29T14:58:52;6.97;;;5.00;;
3663;SDS011;1848;51.042;7.066;2022-07-29T15:01:19;10.83;;;4.70;;
3663;SDS011;1848;51.042;7.066;2022-07-29T15:03:45;6.40;;;4.70;;
3663;SDS011;1848;51.042;7.066;2022-07-29T15:06:12;7.17;;;5.00;;
3663;SDS011;1848;51.042;7.066;2022-07-29T15:08:38;7.63;;;4.90;;
3663;SDS011;1848;51.042;7.066;2022-07-29T15:11:05;6.90;;;5.30;;
3663;SDS011;1848;51.042;7.066;2022-07-29T15:13:31;8.30;;;5.03;;
3663;SDS011;1848;51.042;7.066;2022-07-29T15:15:58;7.20;;;4.87;;
3663;SDS011;1848;51.042;7.066;2022-07-29T15:18:25;10.13;;;4.73;;
3663;SDS011;1848;51.042;7.066;2022-07-29T15:20:52;8.70;;;4.70;;
3663;SDS011;1848;51.042;7.066;2022-07-29T15:23:19;7.20;;;4.43;;
3663;SDS011;1848;51.042;7.066;2022-07-29T15:25:45;8.30;;;5.00;;
3663;SDS011;1848;51.042;7.066;2022-07-29T15:28:12;8.13;;;4.90;;
3663;SDS011;1848;51.042;7.066;2022-07-29T15:30:38;9.23;;;4.90;;
3663;SDS011;1848;51.042;7.066;2022-07-29T15:33:08;7.30;;;4.47;;
3663;SDS011;1848;51.042;7.066;2022-07-29T15:35:35;4.73;;;4.30;;
3663;SDS011;1848;51.042;7.066;2022-07-29T15:38:06;5.90;;;4.43;;
3663;SDS011;1848;51.042;7.066;2022-07-29T15:40:32;6.40;;;4.90;;
3663;SDS011;1848;51.042;7.066;2022-07-29T15:42:59;8.20;;;4.90;;
3663;SDS011;1848;51.042;7.066;2022-07-29T15:45:35;8.03;;;4.27;;
3663;SDS011;1848;51.042;7.066;2022-07-29T15:48:06;7.10;;;4.73;;
3663;SDS011;1848;51.042;7.066;2022-07-29T15:50:34;8.00;;;4.50;;
3663;SDS011;1848;51.042;7.066;2022-07-29T15:53:01;6.10;;;4.60;;
3663;SDS011;1848;51.042;7.066;2022-07-29T15:55:27;7.73;;;4.17;;
3663;SDS011;1848;51.042;7.066;2022-07-29T15:57:54;17.53;;;4.20;;
3663;SDS011;1848;51.042;7.066;2022-07-29T16:00:25;5.30;;;4.00;;
3663;SDS011;1848;51.042;7.066;2022-07-29T16:02:52;5.60;;;4.53;;
3663;SDS011;1848;51.042;7.066;2022-07-29T16:05:18;9.53;;;4.60;;
3663;SDS011;1848;51.042;7.066;2022-07-29T16:07:45;7.30;;;4.60;;
3663;SDS011;1848;51.042;7.066;2022-07-29T16:10:11;7.73;;;4.77;;
3663;SDS011;1848;51.042;7.066;2022-07-29T16:12:38;9.17;;;3.90;;
3663;SDS011;1848;51.042;7.066;2022-07-29T16:15:04;9.37;;;4.70;;
3663;SDS011;1848;51.042;7.066;2022-07-29T16:17:35;5.87;;;4.17;;
3663;SDS011;1848;51.042;7.066;2022-07-29T16:20:03;9.73;;;4.83;;
3663;SDS011;1848;51.042;7.066;2022-07-29T16:22:30;8.37;;;5.03;;
3663;SDS011;1848;51.042;7.066;2022-07-29T16:24:57;8.00;;;4.80;;